GAP2039 RPLL-RPVE
Flight info
| Callsign | GAP2039 |
|---|---|
| Flight time | 0h 50m |
| Altitude | 25000 |
| Route | HARBO1 HARBO DCT VERDE W24 TAPER TAPER7B |
| Aircraft | A320/M-SDE3FGHIRWY/LB1 |
Departure
| Time | 2026-04-26 01:04 |
|---|---|
| Airport | Ninoy Aquino International Airport (RPLL) |
Arrival
| Time | 2026-04-26 01:54 |
|---|---|
| Airport | Godofredo P. Ramos Airport (RPVE) |
| Time | Latitude | Longitude | Altitude | Speed | Heading |
|---|---|---|---|---|---|
| 2026-04-26 00:47 | 14.50925 | 121.01408 | 82 ft | 0 kts | 330° |
| 2026-04-26 00:51 | 14.50924 | 121.01408 | 82 ft | 0 kts | 330° |
| 2026-04-26 00:54 | 14.50915 | 121.01413 | 82 ft | 2 kts | 330° |
| 2026-04-26 00:55 | 14.50902 | 121.01421 | 82 ft | 2 kts | 330° |
| 2026-04-26 00:55 | 14.50889 | 121.01429 | 82 ft | 2 kts | 330° |
| 2026-04-26 00:55 | 14.50876 | 121.01437 | 82 ft | 2 kts | 330° |
| 2026-04-26 00:55 | 14.50863 | 121.01444 | 82 ft | 2 kts | 330° |
| 2026-04-26 00:56 | 14.50850 | 121.01452 | 82 ft | 2 kts | 330° |
| 2026-04-26 00:56 | 14.50836 | 121.01457 | 82 ft | 2 kts | 14° |
| 2026-04-26 00:56 | 14.50824 | 121.01450 | 82 ft | 0 kts | 54° |
| 2026-04-26 00:56 | 14.50824 | 121.01448 | 82 ft | 1 kts | 52° |
| 2026-04-26 00:57 | 14.50839 | 121.01474 | 82 ft | 4 kts | 60° |
| 2026-04-26 00:57 | 14.50846 | 121.01487 | 82 ft | 0 kts | 60° |
| 2026-04-26 00:57 | 14.50847 | 121.01490 | 82 ft | 0 kts | 60° |
| 2026-04-26 01:01 | 14.50850 | 121.01494 | 82 ft | 1 kts | 59° |
| 2026-04-26 01:01 | 14.50855 | 121.01504 | 82 ft | 2 kts | 59° |
| 2026-04-26 01:01 | 14.50871 | 121.01530 | 82 ft | 5 kts | 60° |
| 2026-04-26 01:01 | 14.50895 | 121.01575 | 82 ft | 8 kts | 60° |
| 2026-04-26 01:02 | 14.50930 | 121.01639 | 82 ft | 11 kts | 60° |
| 2026-04-26 01:02 | 14.50973 | 121.01719 | 82 ft | 13 kts | 61° |
| 2026-04-26 01:02 | 14.51024 | 121.01771 | 82 ft | 10 kts | 349° |
| 2026-04-26 01:02 | 14.51083 | 121.01727 | 82 ft | 5 kts | 313° |
| 2026-04-26 01:03 | 14.51086 | 121.01724 | 82 ft | 0 kts | 312° |
| 2026-04-26 01:03 | 14.51087 | 121.01723 | 82 ft | 0 kts | 312° |
| 2026-04-26 01:03 | 14.51153 | 121.01652 | 82 ft | 50 kts | 315° |
| 2026-04-26 01:04 | 14.51610 | 121.01181 | 82 ft | 131 kts | 315° |
| 2026-04-26 01:04 | 14.52369 | 121.00403 | 393 ft | 163 kts | 315° |
| 2026-04-26 01:04 | 14.53205 | 120.99604 | 1098 ft | 167 kts | 318° |
| 2026-04-26 01:04 | 14.54080 | 120.98781 | 1752 ft | 178 kts | 320° |
| 2026-04-26 01:05 | 14.54960 | 120.97924 | 2333 ft | 176 kts | 316° |
| 2026-04-26 01:05 | 14.55848 | 120.96952 | 2605 ft | 196 kts | 314° |
| 2026-04-26 01:05 | 14.56828 | 120.95864 | 2944 ft | 212 kts | 311° |
| 2026-04-26 01:05 | 14.57445 | 120.94450 | 3235 ft | 232 kts | 275° |
| 2026-04-26 01:06 | 14.57028 | 120.92770 | 3476 ft | 255 kts | 233° |
| 2026-04-26 01:06 | 14.55633 | 120.91655 | 3989 ft | 261 kts | 197° |
| 2026-04-26 01:06 | 14.53795 | 120.91544 | 4417 ft | 271 kts | 165° |
| 2026-04-26 01:06 | 14.51949 | 120.92073 | 5099 ft | 275 kts | 162° |
| 2026-04-26 01:07 | 14.50093 | 120.92564 | 5844 ft | 278 kts | 165° |
| 2026-04-26 01:07 | 14.48179 | 120.92963 | 6579 ft | 280 kts | 168° |
| 2026-04-26 01:07 | 14.46251 | 120.93288 | 7300 ft | 283 kts | 170° |
| 2026-04-26 01:07 | 14.44292 | 120.93565 | 8008 ft | 286 kts | 172° |
| 2026-04-26 01:08 | 14.42300 | 120.93812 | 8710 ft | 288 kts | 172° |
| 2026-04-26 01:08 | 14.40284 | 120.94044 | 9392 ft | 291 kts | 173° |
| 2026-04-26 01:08 | 14.38273 | 120.94263 | 10041 ft | 294 kts | 173° |
| 2026-04-26 01:08 | 14.36194 | 120.94484 | 10536 ft | 304 kts | 174° |
| 2026-04-26 01:09 | 14.34023 | 120.94709 | 10803 ft | 320 kts | 174° |
| 2026-04-26 01:09 | 14.31758 | 120.94941 | 11064 ft | 336 kts | 174° |
| 2026-04-26 01:09 | 14.29356 | 120.95186 | 11398 ft | 347 kts | 174° |
| 2026-04-26 01:09 | 14.26931 | 120.95433 | 11924 ft | 352 kts | 175° |
| 2026-04-26 01:10 | 14.24446 | 120.95685 | 12469 ft | 355 kts | 175° |
| 2026-04-26 01:10 | 14.21957 | 120.95937 | 12979 ft | 358 kts | 175° |
| 2026-04-26 01:10 | 14.19478 | 120.96188 | 13472 ft | 362 kts | 175° |
| 2026-04-26 01:10 | 14.16943 | 120.96443 | 13979 ft | 364 kts | 175° |
| 2026-04-26 01:11 | 14.14409 | 120.96699 | 14457 ft | 367 kts | 175° |
| 2026-04-26 01:11 | 14.11854 | 120.96958 | 14930 ft | 369 kts | 175° |
| 2026-04-26 01:11 | 14.09253 | 120.97221 | 15410 ft | 372 kts | 175° |
| 2026-04-26 01:11 | 14.06685 | 120.97480 | 15862 ft | 374 kts | 175° |
| 2026-04-26 01:12 | 14.04071 | 120.97746 | 16302 ft | 377 kts | 175° |
| 2026-04-26 01:12 | 14.01450 | 120.98011 | 16724 ft | 379 kts | 175° |
| 2026-04-26 01:12 | 13.98798 | 120.98280 | 17133 ft | 382 kts | 175° |
| 2026-04-26 01:12 | 13.96133 | 120.98550 | 17557 ft | 384 kts | 175° |
| 2026-04-26 01:13 | 13.93434 | 120.98823 | 17959 ft | 387 kts | 176° |
| 2026-04-26 01:13 | 13.90760 | 120.99092 | 18359 ft | 389 kts | 175° |
| 2026-04-26 01:13 | 13.88021 | 120.99369 | 18754 ft | 391 kts | 175° |
| 2026-04-26 01:13 | 13.85289 | 120.99645 | 19148 ft | 394 kts | 175° |
| 2026-04-26 01:14 | 13.82584 | 120.99919 | 19526 ft | 396 kts | 175° |
| 2026-04-26 01:14 | 13.79794 | 121.00201 | 19923 ft | 398 kts | 176° |
| 2026-04-26 01:14 | 13.77025 | 121.00481 | 20307 ft | 400 kts | 175° |
| 2026-04-26 01:14 | 13.74242 | 121.00763 | 20684 ft | 402 kts | 176° |
| 2026-04-26 01:15 | 13.71453 | 121.01046 | 21054 ft | 404 kts | 176° |
| 2026-04-26 01:15 | 13.68637 | 121.01330 | 21422 ft | 405 kts | 176° |
| 2026-04-26 01:15 | 13.65805 | 121.01616 | 21789 ft | 407 kts | 176° |
| 2026-04-26 01:15 | 13.62979 | 121.01902 | 22147 ft | 409 kts | 175° |
| 2026-04-26 01:16 | 13.60160 | 121.02187 | 22499 ft | 411 kts | 175° |
| 2026-04-26 01:16 | 13.57291 | 121.02477 | 22833 ft | 413 kts | 176° |
| 2026-04-26 01:16 | 13.54386 | 121.02772 | 23156 ft | 415 kts | 175° |
| 2026-04-26 01:16 | 13.51563 | 121.03324 | 23435 ft | 419 kts | 165° |
| 2026-04-26 01:17 | 13.48798 | 121.04414 | 23742 ft | 423 kts | 155° |
| 2026-04-26 01:17 | 13.46279 | 121.05946 | 24042 ft | 426 kts | 147° |
| 2026-04-26 01:17 | 13.43822 | 121.07679 | 24344 ft | 428 kts | 146° |
| 2026-04-26 01:17 | 13.41353 | 121.09457 | 24636 ft | 430 kts | 146° |
| 2026-04-26 01:18 | 13.38896 | 121.11213 | 24917 ft | 432 kts | 147° |
| 2026-04-26 01:18 | 13.36398 | 121.12981 | 25008 ft | 432 kts | 147° |
| 2026-04-26 01:18 | 13.33934 | 121.14709 | 25014 ft | 432 kts | 147° |
| 2026-04-26 01:18 | 13.31446 | 121.16451 | 25015 ft | 431 kts | 147° |
| 2026-04-26 01:19 | 13.28937 | 121.18205 | 25015 ft | 431 kts | 147° |
| 2026-04-26 01:19 | 13.26446 | 121.19949 | 25012 ft | 431 kts | 147° |
| 2026-04-26 01:19 | 13.23952 | 121.21697 | 25003 ft | 431 kts | 147° |
| 2026-04-26 01:19 | 13.21487 | 121.23425 | 24989 ft | 431 kts | 147° |
| 2026-04-26 01:20 | 13.18988 | 121.25176 | 24976 ft | 431 kts | 147° |
| 2026-04-26 01:20 | 13.16500 | 121.26920 | 24972 ft | 431 kts | 147° |
| 2026-04-26 01:20 | 13.14028 | 121.28652 | 24975 ft | 431 kts | 147° |
| 2026-04-26 01:20 | 13.11518 | 121.30410 | 24977 ft | 431 kts | 147° |
| 2026-04-26 01:21 | 13.09049 | 121.32140 | 24980 ft | 431 kts | 147° |
| 2026-04-26 01:21 | 13.06560 | 121.33882 | 24983 ft | 431 kts | 147° |
| 2026-04-26 01:21 | 13.04067 | 121.35628 | 24983 ft | 431 kts | 147° |
| 2026-04-26 01:21 | 13.01571 | 121.37376 | 24985 ft | 431 kts | 147° |
| 2026-04-26 01:22 | 12.99079 | 121.39119 | 24981 ft | 431 kts | 147° |
| 2026-04-26 01:22 | 12.96612 | 121.40844 | 24979 ft | 431 kts | 147° |
| 2026-04-26 01:22 | 12.94104 | 121.42600 | 24973 ft | 431 kts | 147° |
| 2026-04-26 01:22 | 12.91640 | 121.44322 | 24725 ft | 430 kts | 147° |
| 2026-04-26 01:23 | 12.89146 | 121.46065 | 24380 ft | 427 kts | 147° |
| 2026-04-26 01:23 | 12.86668 | 121.47797 | 23938 ft | 425 kts | 147° |
| 2026-04-26 01:23 | 12.84197 | 121.49523 | 23449 ft | 422 kts | 146° |
| 2026-04-26 01:23 | 12.81753 | 121.51230 | 22945 ft | 419 kts | 146° |
| 2026-04-26 01:24 | 12.79378 | 121.52889 | 22452 ft | 416 kts | 146° |
| 2026-04-26 01:24 | 12.76960 | 121.54578 | 21938 ft | 413 kts | 146° |
| 2026-04-26 01:24 | 12.74605 | 121.56222 | 21446 ft | 409 kts | 146° |
| 2026-04-26 01:24 | 12.72274 | 121.57848 | 20940 ft | 406 kts | 146° |
| 2026-04-26 01:25 | 12.69918 | 121.59493 | 20418 ft | 403 kts | 146° |
| 2026-04-26 01:25 | 12.67613 | 121.61101 | 19920 ft | 400 kts | 146° |
| 2026-04-26 01:25 | 12.65332 | 121.62693 | 19425 ft | 397 kts | 146° |
| 2026-04-26 01:25 | 12.63031 | 121.64299 | 18911 ft | 394 kts | 146° |
| 2026-04-26 01:26 | 12.60788 | 121.65863 | 18431 ft | 391 kts | 146° |
| 2026-04-26 01:26 | 12.58520 | 121.67445 | 17935 ft | 389 kts | 145° |
| 2026-04-26 01:26 | 12.56304 | 121.68990 | 17445 ft | 386 kts | 145° |
| 2026-04-26 01:26 | 12.54081 | 121.70538 | 16952 ft | 384 kts | 145° |
| 2026-04-26 01:27 | 12.51868 | 121.72082 | 16477 ft | 381 kts | 145° |
| 2026-04-26 01:27 | 12.49700 | 121.73594 | 16001 ft | 379 kts | 145° |
| 2026-04-26 01:27 | 12.47501 | 121.75127 | 15505 ft | 377 kts | 145° |
| 2026-04-26 01:27 | 12.45336 | 121.76636 | 15032 ft | 375 kts | 145° |
| 2026-04-26 01:28 | 12.43205 | 121.78121 | 14547 ft | 373 kts | 145° |
| 2026-04-26 01:28 | 12.41059 | 121.79616 | 14068 ft | 370 kts | 145° |
| 2026-04-26 01:28 | 12.38943 | 121.81087 | 13605 ft | 367 kts | 146° |
| 2026-04-26 01:28 | 12.36717 | 121.82407 | 13126 ft | 364 kts | 153° |
| 2026-04-26 01:29 | 12.34366 | 121.83395 | 12670 ft | 361 kts | 161° |
| 2026-04-26 01:29 | 12.31969 | 121.84146 | 12204 ft | 357 kts | 163° |
| 2026-04-26 01:29 | 12.29606 | 121.84842 | 11748 ft | 354 kts | 163° |
| 2026-04-26 01:29 | 12.27226 | 121.85539 | 11273 ft | 351 kts | 163° |
| 2026-04-26 01:30 | 12.24873 | 121.86231 | 10808 ft | 348 kts | 163° |
| 2026-04-26 01:30 | 12.22580 | 121.86908 | 10532 ft | 337 kts | 162° |
| 2026-04-26 01:30 | 12.20338 | 121.87572 | 10372 ft | 324 kts | 162° |
| 2026-04-26 01:30 | 12.18224 | 121.88201 | 10219 ft | 311 kts | 162° |
| 2026-04-26 01:31 | 12.16178 | 121.88810 | 10083 ft | 300 kts | 162° |
| 2026-04-26 01:31 | 12.14193 | 121.89403 | 9847 ft | 293 kts | 162° |
| 2026-04-26 01:31 | 12.12225 | 121.89990 | 9462 ft | 291 kts | 162° |
| 2026-04-26 01:31 | 12.10269 | 121.90572 | 9100 ft | 289 kts | 162° |
| 2026-04-26 01:32 | 12.08329 | 121.91148 | 8738 ft | 287 kts | 162° |
| 2026-04-26 01:32 | 12.06413 | 121.91647 | 8360 ft | 288 kts | 172° |
| 2026-04-26 01:32 | 12.04434 | 121.91354 | 7966 ft | 292 kts | 203° |
| 2026-04-26 01:32 | 12.02815 | 121.90089 | 7592 ft | 294 kts | 230° |
| 2026-04-26 01:33 | 12.01641 | 121.88364 | 7248 ft | 293 kts | 235° |
| 2026-04-26 01:33 | 12.00513 | 121.86653 | 6903 ft | 292 kts | 234° |
| 2026-04-26 01:33 | 11.99370 | 121.84946 | 6564 ft | 290 kts | 234° |
| 2026-04-26 01:33 | 11.98217 | 121.83246 | 6226 ft | 289 kts | 233° |
| 2026-04-26 01:34 | 11.97063 | 121.81557 | 5891 ft | 287 kts | 233° |
| 2026-04-26 01:34 | 11.95914 | 121.79887 | 5563 ft | 286 kts | 233° |
| 2026-04-26 01:34 | 11.94772 | 121.78226 | 5237 ft | 284 kts | 233° |
| 2026-04-26 01:34 | 11.93641 | 121.76585 | 4916 ft | 283 kts | 233° |
| 2026-04-26 01:35 | 11.92481 | 121.74947 | 4584 ft | 281 kts | 227° |
| 2026-04-26 01:35 | 11.90931 | 121.73829 | 4230 ft | 272 kts | 193° |
| 2026-04-26 01:35 | 11.89109 | 121.73806 | 4099 ft | 249 kts | 158° |
| 2026-04-26 01:35 | 11.87585 | 121.74543 | 4072 ft | 230 kts | 146° |
| 2026-04-26 01:36 | 11.86204 | 121.75335 | 4037 ft | 226 kts | 146° |
| 2026-04-26 01:36 | 11.84843 | 121.76106 | 3974 ft | 217 kts | 143° |
| 2026-04-26 01:36 | 11.83865 | 121.77167 | 3809 ft | 198 kts | 104° |
| 2026-04-26 01:37 | 11.84501 | 121.79728 | 3407 ft | 190 kts | 61° |
| 2026-04-26 01:37 | 11.85123 | 121.80872 | 3197 ft | 183 kts | 63° |
| 2026-04-26 01:37 | 11.85717 | 121.82015 | 2916 ft | 179 kts | 63° |
| 2026-04-26 01:37 | 11.86274 | 121.83106 | 2660 ft | 166 kts | 64° |
| 2026-04-26 01:38 | 11.86781 | 121.84105 | 2433 ft | 153 kts | 64° |
| 2026-04-26 01:38 | 11.87256 | 121.85046 | 2174 ft | 145 kts | 64° |
| 2026-04-26 01:38 | 11.87707 | 121.85945 | 1961 ft | 139 kts | 64° |
| 2026-04-26 01:38 | 11.88153 | 121.86836 | 1816 ft | 140 kts | 63° |
| 2026-04-26 01:39 | 11.88589 | 121.87705 | 1615 ft | 138 kts | 63° |
| 2026-04-26 01:39 | 11.89034 | 121.88588 | 1415 ft | 138 kts | 63° |
| 2026-04-26 01:39 | 11.89472 | 121.89455 | 1239 ft | 137 kts | 63° |
| 2026-04-26 01:39 | 11.89908 | 121.90321 | 1058 ft | 137 kts | 64° |
| 2026-04-26 01:40 | 11.90355 | 121.91178 | 884 ft | 136 kts | 63° |
| 2026-04-26 01:40 | 11.90809 | 121.92036 | 740 ft | 136 kts | 64° |
| 2026-04-26 01:40 | 11.91238 | 121.92901 | 574 ft | 135 kts | 65° |
| 2026-04-26 01:40 | 11.91655 | 121.93765 | 407 ft | 136 kts | 66° |
| 2026-04-26 01:41 | 11.92063 | 121.94614 | 166 ft | 132 kts | 64° |
| 2026-04-26 01:41 | 11.92463 | 121.95412 | 31 ft | 116 kts | 64° |
| 2026-04-26 01:41 | 11.92844 | 121.96171 | 322 ft | 126 kts | 65° |
| 2026-04-26 01:41 | 11.93258 | 121.97013 | 829 ft | 143 kts | 65° |
| 2026-04-26 01:42 | 11.93709 | 121.97926 | 1553 ft | 149 kts | 64° |
| 2026-04-26 01:42 | 11.94179 | 121.98866 | 2231 ft | 152 kts | 64° |
| 2026-04-26 01:42 | 11.94684 | 121.99873 | 2627 ft | 168 kts | 64° |
| 2026-04-26 01:42 | 11.95294 | 122.00942 | 3024 ft | 185 kts | 50° |
| 2026-04-26 01:43 | 11.96489 | 122.01504 | 3517 ft | 204 kts | 6° |
| 2026-04-26 01:43 | 11.97890 | 122.01006 | 3818 ft | 228 kts | 322° |
| 2026-04-26 01:43 | 11.98941 | 121.99705 | 3969 ft | 242 kts | 309° |
| 2026-04-26 01:43 | 11.99917 | 121.98307 | 3966 ft | 243 kts | 309° |
| 2026-04-26 01:44 | 12.00933 | 121.96906 | 3965 ft | 243 kts | 310° |
| 2026-04-26 01:44 | 12.01967 | 121.95538 | 3965 ft | 243 kts | 311° |
| 2026-04-26 01:44 | 12.03013 | 121.94183 | 3964 ft | 243 kts | 312° |
| 2026-04-26 01:44 | 12.04010 | 121.92764 | 3955 ft | 246 kts | 297° |
| 2026-04-26 01:45 | 12.04235 | 121.91052 | 3950 ft | 250 kts | 256° |
| 2026-04-26 01:45 | 12.03453 | 121.89513 | 3969 ft | 248 kts | 228° |
| 2026-04-26 01:45 | 12.02290 | 121.88206 | 3967 ft | 247 kts | 224° |
| 2026-04-26 01:45 | 12.01122 | 121.86904 | 3964 ft | 247 kts | 226° |
| 2026-04-26 01:46 | 12.00012 | 121.85545 | 3962 ft | 248 kts | 229° |
| 2026-04-26 01:46 | 11.98949 | 121.84137 | 3962 ft | 248 kts | 231° |
| 2026-04-26 01:46 | 11.97927 | 121.82716 | 3961 ft | 249 kts | 232° |
| 2026-04-26 01:46 | 11.96907 | 121.81262 | 3961 ft | 248 kts | 233° |
| 2026-04-26 01:47 | 11.95910 | 121.79829 | 3963 ft | 248 kts | 233° |
| 2026-04-26 01:47 | 11.94912 | 121.78390 | 3966 ft | 248 kts | 233° |
| 2026-04-26 01:47 | 11.93908 | 121.76945 | 3969 ft | 248 kts | 233° |
| 2026-04-26 01:47 | 11.92899 | 121.75494 | 3973 ft | 248 kts | 232° |
| 2026-04-26 01:48 | 11.91686 | 121.74271 | 3963 ft | 243 kts | 205° |
| 2026-04-26 01:48 | 11.90089 | 121.73810 | 3970 ft | 234 kts | 175° |
| 2026-04-26 01:48 | 11.88525 | 121.74138 | 3975 ft | 227 kts | 150° |
| 2026-04-26 01:48 | 11.87129 | 121.74867 | 3969 ft | 226 kts | 147° |
| 2026-04-26 01:49 | 11.85740 | 121.75629 | 3904 ft | 225 kts | 147° |
| 2026-04-26 01:49 | 11.84390 | 121.76459 | 3806 ft | 221 kts | 131° |
| 2026-04-26 01:49 | 11.83727 | 121.77760 | 3716 ft | 201 kts | 90° |
| 2026-04-26 01:49 | 11.84068 | 121.79089 | 3477 ft | 196 kts | 60° |
| 2026-04-26 01:50 | 11.84775 | 121.80284 | 3229 ft | 194 kts | 61° |
| 2026-04-26 01:50 | 11.85422 | 121.81475 | 3044 ft | 187 kts | 63° |
| 2026-04-26 01:50 | 11.86020 | 121.82624 | 2804 ft | 179 kts | 63° |
| 2026-04-26 01:50 | 11.86571 | 121.83698 | 2569 ft | 163 kts | 64° |
| 2026-04-26 01:51 | 11.87077 | 121.84694 | 2289 ft | 153 kts | 64° |
| 2026-04-26 01:51 | 11.87544 | 121.85619 | 2048 ft | 140 kts | 64° |
| 2026-04-26 01:51 | 11.87989 | 121.86504 | 1853 ft | 138 kts | 63° |
| 2026-04-26 01:51 | 11.88424 | 121.87375 | 1670 ft | 138 kts | 63° |
| 2026-04-26 01:52 | 11.88843 | 121.88254 | 1498 ft | 137 kts | 65° |
| 2026-04-26 01:52 | 11.89286 | 121.89111 | 1307 ft | 137 kts | 61° |
| 2026-04-26 01:52 | 11.89742 | 121.89975 | 1156 ft | 136 kts | 64° |
| 2026-04-26 01:52 | 11.90168 | 121.90845 | 1009 ft | 136 kts | 64° |
| 2026-04-26 01:53 | 11.90599 | 121.91700 | 841 ft | 136 kts | 64° |
| 2026-04-26 01:53 | 11.91043 | 121.92555 | 662 ft | 135 kts | 64° |
| 2026-04-26 01:53 | 11.91470 | 121.93413 | 479 ft | 135 kts | 65° |
| 2026-04-26 01:53 | 11.91889 | 121.94265 | 239 ft | 133 kts | 65° |
| 2026-04-26 01:54 | 11.92301 | 121.95089 | 39 ft | 124 kts | 65° |
| 2026-04-26 01:54 | 11.92621 | 121.95727 | 30 ft | 62 kts | 63° |
| 2026-04-26 01:54 | 11.92773 | 121.96031 | 30 ft | 44 kts | 64° |
| 2026-04-26 01:54 | 11.92905 | 121.96291 | 30 ft | 34 kts | 63° |
| 2026-04-26 01:55 | 11.92939 | 121.96459 | 30 ft | 22 kts | 137° |
| 2026-04-26 01:55 | 11.92842 | 121.96516 | 30 ft | 11 kts | 151° |
| 2026-04-26 01:55 | 11.92814 | 121.96510 | 30 ft | 2 kts | 290° |
| 2026-04-26 01:55 | 11.92821 | 121.96507 | 30 ft | 0 kts | 18° |
| 2026-04-26 01:56 | 11.92821 | 121.96512 | 30 ft | 0 kts | 103° |
| 2026-04-26 01:56 | 11.92814 | 121.96516 | 30 ft | 1 kts | 157° |
| 2026-04-26 01:56 | 11.92797 | 121.96515 | 30 ft | 3 kts | 207° |
| 2026-04-26 01:56 | 11.92775 | 121.96487 | 30 ft | 6 kts | 234° |
| 2026-04-26 01:57 | 11.92752 | 121.96446 | 30 ft | 4 kts | 226° |
| 2026-04-26 01:57 | 11.92716 | 121.96451 | 30 ft | 6 kts | 155° |
| 2026-04-26 01:57 | 11.92697 | 121.96461 | 30 ft | 0 kts | 153° |
| 2026-04-26 01:57 | 11.92696 | 121.96461 | 30 ft | 0 kts | 153° |